sensor_id;sensor_type;location;lat;lon;timestamp;temperature;humidity
32139;DHT22;18644;48.700;9.210;2023-08-24T00:01:58;21.70;56.30
32139;DHT22;18644;48.700;9.210;2023-08-24T00:04:25;21.70;56.40
32139;DHT22;18644;48.700;9.210;2023-08-24T00:06:52;21.70;57.10
32139;DHT22;18644;48.700;9.210;2023-08-24T00:09:19;21.60;56.70
32139;DHT22;18644;48.700;9.210;2023-08-24T00:11:47;21.60;57.00
32139;DHT22;18644;48.700;9.210;2023-08-24T00:14:14;21.60;57.20
32139;DHT22;18644;48.700;9.210;2023-08-24T00:16:41;21.60;57.20
32139;DHT22;18644;48.700;9.210;2023-08-24T00:19:09;21.60;57.20
32139;DHT22;18644;48.700;9.210;2023-08-24T00:21:35;21.60;57.20
32139;DHT22;18644;48.700;9.210;2023-08-24T00:24:03;21.60;57.10
32139;DHT22;18644;48.700;9.210;2023-08-24T00:26:30;21.60;57.00
32139;DHT22;18644;48.700;9.210;2023-08-24T00:28:58;21.60;57.00
32139;DHT22;18644;48.700;9.210;2023-08-24T00:31:25;21.50;57.00
32139;DHT22;18644;48.700;9.210;2023-08-24T00:33:52;21.50;57.00
32139;DHT22;18644;48.700;9.210;2023-08-24T00:36:18;21.50;57.00
32139;DHT22;18644;48.700;9.210;2023-08-24T00:38:46;21.50;57.00
32139;DHT22;18644;48.700;9.210;2023-08-24T00:41:16;21.50;57.00
32139;DHT22;18644;48.700;9.210;2023-08-24T00:43:43;21.40;57.00
32139;DHT22;18644;48.700;9.210;2023-08-24T00:46:11;21.40;57.00
32139;DHT22;18644;48.700;9.210;2023-08-24T00:48:38;21.40;57.10
32139;DHT22;18644;48.700;9.210;2023-08-24T00:51:05;21.40;57.10
32139;DHT22;18644;48.700;9.210;2023-08-24T00:53:32;21.30;57.20
32139;DHT22;18644;48.700;9.210;2023-08-24T00:56:00;21.30;57.30
32139;DHT22;18644;48.700;9.210;2023-08-24T00:58:27;21.30;57.40
32139;DHT22;18644;48.700;9.210;2023-08-24T01:00:55;21.20;57.50
32139;DHT22;18644;48.700;9.210;2023-08-24T01:03:24;21.20;57.50
32139;DHT22;18644;48.700;9.210;2023-08-24T01:05:52;21.20;57.60
32139;DHT22;18644;48.700;9.210;2023-08-24T01:08:19;21.20;57.60
32139;DHT22;18644;48.700;9.210;2023-08-24T01:10:52;21.10;57.60
32139;DHT22;18644;48.700;9.210;2023-08-24T01:13:30;21.10;57.70
32139;DHT22;18644;48.700;9.210;2023-08-24T01:16:09;21.10;57.70
32139;DHT22;18644;48.700;9.210;2023-08-24T01:18:42;21.10;57.70
32139;DHT22;18644;48.700;9.210;2023-08-24T01:21:09;21.00;57.80
32139;DHT22;18644;48.700;9.210;2023-08-24T01:23:48;21.00;57.80
32139;DHT22;18644;48.700;9.210;2023-08-24T01:26:22;20.90;58.10
32139;DHT22;18644;48.700;9.210;2023-08-24T01:28:50;20.90;57.80
32139;DHT22;18644;48.700;9.210;2023-08-24T01:31:17;20.90;57.90
32139;DHT22;18644;48.700;9.210;2023-08-24T01:33:44;20.80;58.00
32139;DHT22;18644;48.700;9.210;2023-08-24T01:36:13;20.80;58.10
32139;DHT22;18644;48.700;9.210;2023-08-24T01:38:43;20.80;58.10
32139;DHT22;18644;48.700;9.210;2023-08-24T01:41:14;20.80;58.20
32139;DHT22;18644;48.700;9.210;2023-08-24T01:43:52;20.80;58.30
32139;DHT22;18644;48.700;9.210;2023-08-24T01:46:22;20.70;58.40
32139;DHT22;18644;48.700;9.210;2023-08-24T01:48:52;20.70;58.40
32139;DHT22;18644;48.700;9.210;2023-08-24T01:51:19;20.70;58.50
32139;DHT22;18644;48.700;9.210;2023-08-24T01:53:47;20.60;58.50
32139;DHT22;18644;48.700;9.210;2023-08-24T01:56:15;20.60;58.60
32139;DHT22;18644;48.700;9.210;2023-08-24T01:58:43;20.60;58.70
32139;DHT22;18644;48.700;9.210;2023-08-24T02:01:10;20.50;58.70
32139;DHT22;18644;48.700;9.210;2023-08-24T02:03:38;20.50;58.70
32139;DHT22;18644;48.700;9.210;2023-08-24T02:06:05;20.50;58.80
32139;DHT22;18644;48.700;9.210;2023-08-24T02:08:33;20.50;58.90
32139;DHT22;18644;48.700;9.210;2023-08-24T02:10:59;20.50;59.00
32139;DHT22;18644;48.700;9.210;2023-08-24T02:13:26;20.40;59.10
32139;DHT22;18644;48.700;9.210;2023-08-24T02:16:01;20.40;59.70
32139;DHT22;18644;48.700;9.210;2023-08-24T02:18:30;20.40;59.20
32139;DHT22;18644;48.700;9.210;2023-08-24T02:20:57;20.40;59.10
32139;DHT22;18644;48.700;9.210;2023-08-24T02:23:24;20.40;59.20
32139;DHT22;18644;48.700;9.210;2023-08-24T02:25:50;20.30;59.30
32139;DHT22;18644;48.700;9.210;2023-08-24T02:28:17;20.30;59.30
32139;DHT22;18644;48.700;9.210;2023-08-24T02:30:44;20.30;59.40
32139;DHT22;18644;48.700;9.210;2023-08-24T02:33:11;20.30;59.50
32139;DHT22;18644;48.700;9.210;2023-08-24T02:35:39;20.30;59.60
32139;DHT22;18644;48.700;9.210;2023-08-24T02:38:06;20.20;59.60
32139;DHT22;18644;48.700;9.210;2023-08-24T02:40:33;20.20;59.70
32139;DHT22;18644;48.700;9.210;2023-08-24T02:43:00;20.20;59.80
32139;DHT22;18644;48.700;9.210;2023-08-24T02:45:27;20.20;59.90
32139;DHT22;18644;48.700;9.210;2023-08-24T02:47:53;20.20;60.00
32139;DHT22;18644;48.700;9.210;2023-08-24T02:50:20;20.20;60.10
32139;DHT22;18644;48.700;9.210;2023-08-24T02:52:49;20.20;60.30
32139;DHT22;18644;48.700;9.210;2023-08-24T02:55:17;20.20;60.50
32139;DHT22;18644;48.700;9.210;2023-08-24T02:57:43;20.20;60.50
32139;DHT22;18644;48.700;9.210;2023-08-24T03:00:11;20.20;60.80
32139;DHT22;18644;48.700;9.210;2023-08-24T03:02:39;20.20;60.80
32139;DHT22;18644;48.700;9.210;2023-08-24T03:05:06;20.20;61.00
32139;DHT22;18644;48.700;9.210;2023-08-24T03:07:34;20.20;61.20
32139;DHT22;18644;48.700;9.210;2023-08-24T03:10:02;20.20;61.30
32139;DHT22;18644;48.700;9.210;2023-08-24T03:12:29;20.20;62.40
32139;DHT22;18644;48.700;9.210;2023-08-24T03:14:56;20.20;61.50
32139;DHT22;18644;48.700;9.210;2023-08-24T03:17:23;20.20;61.40
32139;DHT22;18644;48.700;9.210;2023-08-24T03:19:50;20.20;61.40
32139;DHT22;18644;48.700;9.210;2023-08-24T03:22:17;20.20;61.50
32139;DHT22;18644;48.700;9.210;2023-08-24T03:24:44;20.20;61.60
32139;DHT22;18644;48.700;9.210;2023-08-24T03:27:12;20.20;61.60
32139;DHT22;18644;48.700;9.210;2023-08-24T03:29:39;20.20;61.70
32139;DHT22;18644;48.700;9.210;2023-08-24T03:32:06;20.20;61.70
32139;DHT22;18644;48.700;9.210;2023-08-24T03:34:33;20.20;61.60
32139;DHT22;18644;48.700;9.210;2023-08-24T03:36:59;20.20;61.70
32139;DHT22;18644;48.700;9.210;2023-08-24T03:39:26;20.20;61.70
32139;DHT22;18644;48.700;9.210;2023-08-24T03:41:53;20.20;61.70
32139;DHT22;18644;48.700;9.210;2023-08-24T03:44:22;20.20;61.90
32139;DHT22;18644;48.700;9.210;2023-08-24T03:46:49;20.20;62.00
32139;DHT22;18644;48.700;9.210;2023-08-24T03:49:15;20.30;62.10
32139;DHT22;18644;48.700;9.210;2023-08-24T03:51:42;20.20;62.20
32139;DHT22;18644;48.700;9.210;2023-08-24T03:54:09;20.30;62.10
32139;DHT22;18644;48.700;9.210;2023-08-24T03:56:36;20.20;62.20
32139;DHT22;18644;48.700;9.210;2023-08-24T03:59:03;20.30;62.20
32139;DHT22;18644;48.700;9.210;2023-08-24T04:01:31;20.30;62.20
32139;DHT22;18644;48.700;9.210;2023-08-24T04:03:58;20.30;62.40
32139;DHT22;18644;48.700;9.210;2023-08-24T04:06:25;20.30;62.50
32139;DHT22;18644;48.700;9.210;2023-08-24T04:08:52;20.30;62.60
32139;DHT22;18644;48.700;9.210;2023-08-24T04:11:19;20.30;62.60
32139;DHT22;18644;48.700;9.210;2023-08-24T04:13:46;20.30;62.80
32139;DHT22;18644;48.700;9.210;2023-08-24T04:16:13;20.40;62.90
32139;DHT22;18644;48.700;9.210;2023-08-24T04:18:41;20.40;63.10
32139;DHT22;18644;48.700;9.210;2023-08-24T04:21:08;20.40;63.10
32139;DHT22;18644;48.700;9.210;2023-08-24T04:23:35;20.40;63.20
32139;DHT22;18644;48.700;9.210;2023-08-24T04:26:02;20.40;63.20
32139;DHT22;18644;48.700;9.210;2023-08-24T04:28:30;20.40;63.20
32139;DHT22;18644;48.700;9.210;2023-08-24T04:30:57;20.50;63.20
32139;DHT22;18644;48.700;9.210;2023-08-24T04:33:24;20.50;63.30
32139;DHT22;18644;48.700;9.210;2023-08-24T04:35:52;20.50;63.30
32139;DHT22;18644;48.700;9.210;2023-08-24T04:38:19;20.50;63.30
32139;DHT22;18644;48.700;9.210;2023-08-24T04:40:48;20.50;63.20
32139;DHT22;18644;48.700;9.210;2023-08-24T04:43:17;20.50;63.30
32139;DHT22;18644;48.700;9.210;2023-08-24T04:45:46;20.60;63.30
32139;DHT22;18644;48.700;9.210;2023-08-24T04:48:14;20.60;63.30
32139;DHT22;18644;48.700;9.210;2023-08-24T04:50:43;20.60;63.30
32139;DHT22;18644;48.700;9.210;2023-08-24T04:53:12;20.60;63.30
32139;DHT22;18644;48.700;9.210;2023-08-24T04:55:40;20.70;63.40
32139;DHT22;18644;48.700;9.210;2023-08-24T04:58:07;20.70;63.40
32139;DHT22;18644;48.700;9.210;2023-08-24T05:00:35;20.70;63.50
32139;DHT22;18644;48.700;9.210;2023-08-24T05:03:02;20.70;63.60
32139;DHT22;18644;48.700;9.210;2023-08-24T05:05:30;20.70;63.60
32139;DHT22;18644;48.700;9.210;2023-08-24T05:07:57;20.80;63.70
32139;DHT22;18644;48.700;9.210;2023-08-24T05:10:29;20.80;63.60
32139;DHT22;18644;48.700;9.210;2023-08-24T05:12:56;20.80;63.80
32139;DHT22;18644;48.700;9.210;2023-08-24T05:15:23;20.90;64.10
32139;DHT22;18644;48.700;9.210;2023-08-24T05:17:50;20.90;63.30
32139;DHT22;18644;48.700;9.210;2023-08-24T05:20:19;20.90;63.60
32139;DHT22;18644;48.700;9.210;2023-08-24T05:22:46;21.00;63.70
32139;DHT22;18644;48.700;9.210;2023-08-24T05:25:13;21.00;63.90
32139;DHT22;18644;48.700;9.210;2023-08-24T05:27:43;21.10;64.10
32139;DHT22;18644;48.700;9.210;2023-08-24T05:30:11;21.10;64.10
32139;DHT22;18644;48.700;9.210;2023-08-24T05:32:38;21.20;64.20
32139;DHT22;18644;48.700;9.210;2023-08-24T05:35:06;21.20;64.60
32139;DHT22;18644;48.700;9.210;2023-08-24T05:37:34;21.30;64.40
32139;DHT22;18644;48.700;9.210;2023-08-24T05:40:02;21.40;64.30
32139;DHT22;18644;48.700;9.210;2023-08-24T05:42:30;21.40;64.30
32139;DHT22;18644;48.700;9.210;2023-08-24T05:44:58;21.50;64.30
32139;DHT22;18644;48.700;9.210;2023-08-24T05:47:25;21.60;64.60
32139;DHT22;18644;48.700;9.210;2023-08-24T05:49:52;21.60;64.70
32139;DHT22;18644;48.700;9.210;2023-08-24T05:52:19;21.70;64.70
32139;DHT22;18644;48.700;9.210;2023-08-24T05:54:46;21.80;64.70
32139;DHT22;18644;48.700;9.210;2023-08-24T05:57:13;21.90;64.90
32139;DHT22;18644;48.700;9.210;2023-08-24T05:59:40;21.90;65.50
32139;DHT22;18644;48.700;9.210;2023-08-24T06:02:08;22.00;64.80
32139;DHT22;18644;48.700;9.210;2023-08-24T06:04:35;22.10;65.00
32139;DHT22;18644;48.700;9.210;2023-08-24T06:07:02;22.20;65.10
32139;DHT22;18644;48.700;9.210;2023-08-24T06:09:30;22.30;65.10
32139;DHT22;18644;48.700;9.210;2023-08-24T06:11:57;22.40;64.80
32139;DHT22;18644;48.700;9.210;2023-08-24T06:14:24;22.50;64.40
32139;DHT22;18644;48.700;9.210;2023-08-24T06:16:51;22.60;63.90
32139;DHT22;18644;48.700;9.210;2023-08-24T06:19:20;22.70;63.60
32139;DHT22;18644;48.700;9.210;2023-08-24T06:21:46;22.80;63.20
32139;DHT22;18644;48.700;9.210;2023-08-24T06:24:13;22.80;63.20
32139;DHT22;18644;48.700;9.210;2023-08-24T06:26:40;23.00;63.50
32139;DHT22;18644;48.700;9.210;2023-08-24T06:29:07;23.00;63.10
32139;DHT22;18644;48.700;9.210;2023-08-24T06:31:34;23.10;62.70
32139;DHT22;18644;48.700;9.210;2023-08-24T06:34:01;23.20;62.30
32139;DHT22;18644;48.700;9.210;2023-08-24T06:36:29;23.20;61.80
32139;DHT22;18644;48.700;9.210;2023-08-24T06:38:56;23.30;61.60
32139;DHT22;18644;48.700;9.210;2023-08-24T06:41:24;23.40;61.50
32139;DHT22;18644;48.700;9.210;2023-08-24T06:43:51;23.40;61.30
32139;DHT22;18644;48.700;9.210;2023-08-24T06:46:19;23.40;61.10
32139;DHT22;18644;48.700;9.210;2023-08-24T06:48:47;23.40;60.90
32139;DHT22;18644;48.700;9.210;2023-08-24T06:51:14;23.50;60.60
32139;DHT22;18644;48.700;9.210;2023-08-24T06:53:43;23.50;60.50
32139;DHT22;18644;48.700;9.210;2023-08-24T06:56:12;23.50;60.30
32139;DHT22;18644;48.700;9.210;2023-08-24T06:58:40;23.50;60.10
32139;DHT22;18644;48.700;9.210;2023-08-24T07:01:08;23.60;60.00
32139;DHT22;18644;48.700;9.210;2023-08-24T07:03:36;23.60;59.90
32139;DHT22;18644;48.700;9.210;2023-08-24T07:06:05;23.60;59.80
32139;DHT22;18644;48.700;9.210;2023-08-24T07:08:32;23.70;59.90
32139;DHT22;18644;48.700;9.210;2023-08-24T07:11:01;23.70;59.90
32139;DHT22;18644;48.700;9.210;2023-08-24T07:13:28;23.70;59.90
32139;DHT22;18644;48.700;9.210;2023-08-24T07:15:55;23.80;59.90
32139;DHT22;18644;48.700;9.210;2023-08-24T07:18:22;23.90;59.90
32139;DHT22;18644;48.700;9.210;2023-08-24T07:20:49;24.00;60.20
32139;DHT22;18644;48.700;9.210;2023-08-24T07:23:15;24.10;60.80
32139;DHT22;18644;48.700;9.210;2023-08-24T07:25:42;24.20;61.10
32139;DHT22;18644;48.700;9.210;2023-08-24T07:28:11;24.30;60.90
32139;DHT22;18644;48.700;9.210;2023-08-24T07:30:37;24.40;61.20
32139;DHT22;18644;48.700;9.210;2023-08-24T07:33:04;24.50;61.20
32139;DHT22;18644;48.700;9.210;2023-08-24T07:35:31;24.60;61.60
32139;DHT22;18644;48.700;9.210;2023-08-24T07:37:59;24.80;61.20
32139;DHT22;18644;48.700;9.210;2023-08-24T07:40:27;24.90;60.50
32139;DHT22;18644;48.700;9.210;2023-08-24T07:42:54;25.10;60.20
32139;DHT22;18644;48.700;9.210;2023-08-24T07:45:23;25.20;59.90
32139;DHT22;18644;48.700;9.210;2023-08-24T07:47:50;25.30;59.50
32139;DHT22;18644;48.700;9.210;2023-08-24T07:50:17;25.40;59.30
32139;DHT22;18644;48.700;9.210;2023-08-24T07:52:44;25.50;58.90
32139;DHT22;18644;48.700;9.210;2023-08-24T07:55:11;25.60;58.80
32139;DHT22;18644;48.700;9.210;2023-08-24T07:57:38;25.70;58.90
32139;DHT22;18644;48.700;9.210;2023-08-24T08:00:06;25.80;58.70
32139;DHT22;18644;48.700;9.210;2023-08-24T08:02:36;25.90;58.60
32139;DHT22;18644;48.700;9.210;2023-08-24T08:05:04;26.00;58.50
32139;DHT22;18644;48.700;9.210;2023-08-24T08:07:33;26.20;58.50
32139;DHT22;18644;48.700;9.210;2023-08-24T08:10:00;26.30;58.60
32139;DHT22;18644;48.700;9.210;2023-08-24T08:12:27;26.50;58.80
32139;DHT22;18644;48.700;9.210;2023-08-24T08:14:54;26.60;58.50
32139;DHT22;18644;48.700;9.210;2023-08-24T08:17:21;26.80;58.20
32139;DHT22;18644;48.700;9.210;2023-08-24T08:19:54;27.00;58.20
32139;DHT22;18644;48.700;9.210;2023-08-24T08:22:21;27.10;58.10
32139;DHT22;18644;48.700;9.210;2023-08-24T08:24:48;27.30;58.00
32139;DHT22;18644;48.700;9.210;2023-08-24T08:27:15;27.50;57.80
32139;DHT22;18644;48.700;9.210;2023-08-24T08:29:42;27.60;58.00
32139;DHT22;18644;48.700;9.210;2023-08-24T08:32:09;27.80;57.80
32139;DHT22;18644;48.700;9.210;2023-08-24T08:34:37;28.00;57.40
32139;DHT22;18644;48.700;9.210;2023-08-24T08:37:06;28.10;56.90
32139;DHT22;18644;48.700;9.210;2023-08-24T08:39:32;28.30;56.10
32139;DHT22;18644;48.700;9.210;2023-08-24T08:41:59;28.50;56.00
32139;DHT22;18644;48.700;9.210;2023-08-24T08:44:30;28.60;56.10
32139;DHT22;18644;48.700;9.210;2023-08-24T08:46:57;28.80;56.10
32139;DHT22;18644;48.700;9.210;2023-08-24T08:49:25;29.00;55.80
32139;DHT22;18644;48.700;9.210;2023-08-24T08:51:52;29.10;55.50
32139;DHT22;18644;48.700;9.210;2023-08-24T08:54:21;29.20;55.30
32139;DHT22;18644;48.700;9.210;2023-08-24T08:56:48;29.40;54.50
32139;DHT22;18644;48.700;9.210;2023-08-24T08:59:15;29.50;54.30
32139;DHT22;18644;48.700;9.210;2023-08-24T09:01:43;29.70;54.10
32139;DHT22;18644;48.700;9.210;2023-08-24T09:04:11;29.80;53.60
32139;DHT22;18644;48.700;9.210;2023-08-24T09:06:38;29.90;53.30
32139;DHT22;18644;48.700;9.210;2023-08-24T09:09:06;30.00;53.10
32139;DHT22;18644;48.700;9.210;2023-08-24T09:11:34;30.20;52.50
32139;DHT22;18644;48.700;9.210;2023-08-24T09:14:02;30.20;52.10
32139;DHT22;18644;48.700;9.210;2023-08-24T09:16:29;30.30;51.90
32139;DHT22;18644;48.700;9.210;2023-08-24T09:18:57;30.40;51.90
32139;DHT22;18644;48.700;9.210;2023-08-24T09:21:24;30.60;52.00
32139;DHT22;18644;48.700;9.210;2023-08-24T09:23:53;30.70;52.20
32139;DHT22;18644;48.700;9.210;2023-08-24T09:26:27;30.80;52.10
32139;DHT22;18644;48.700;9.210;2023-08-24T09:28:56;30.90;51.50
32139;DHT22;18644;48.700;9.210;2023-08-24T09:31:24;31.10;52.00
32139;DHT22;18644;48.700;9.210;2023-08-24T09:34:01;31.30;51.60
32139;DHT22;18644;48.700;9.210;2023-08-24T09:36:31;31.30;51.70
32139;DHT22;18644;48.700;9.210;2023-08-24T09:38:59;31.50;51.80
32139;DHT22;18644;48.700;9.210;2023-08-24T09:41:37;31.60;51.00
32139;DHT22;18644;48.700;9.210;2023-08-24T09:44:06;31.70;50.60
32139;DHT22;18644;48.700;9.210;2023-08-24T09:46:34;31.80;50.80
32139;DHT22;18644;48.700;9.210;2023-08-24T09:49:05;31.90;50.80
32139;DHT22;18644;48.700;9.210;2023-08-24T09:51:33;32.10;50.70
32139;DHT22;18644;48.700;9.210;2023-08-24T09:54:03;32.20;51.10
32139;DHT22;18644;48.700;9.210;2023-08-24T09:56:35;32.30;50.10
32139;DHT22;18644;48.700;9.210;2023-08-24T09:59:11;32.40;50.00
32139;DHT22;18644;48.700;9.210;2023-08-24T10:01:41;32.60;49.20
32139;DHT22;18644;48.700;9.210;2023-08-24T10:04:10;32.60;48.80
32139;DHT22;18644;48.700;9.210;2023-08-24T10:06:38;32.70;48.90
32139;DHT22;18644;48.700;9.210;2023-08-24T10:09:08;32.80;48.40
32139;DHT22;18644;48.700;9.210;2023-08-24T10:11:40;32.90;48.50
32139;DHT22;18644;48.700;9.210;2023-08-24T10:14:15;33.00;48.20
32139;DHT22;18644;48.700;9.210;2023-08-24T10:16:46;33.20;48.60
32139;DHT22;18644;48.700;9.210;2023-08-24T10:19:13;33.30;47.90
32139;DHT22;18644;48.700;9.210;2023-08-24T10:21:42;33.30;47.60
32139;DHT22;18644;48.700;9.210;2023-08-24T10:24:09;33.40;47.60
32139;DHT22;18644;48.700;9.210;2023-08-24T10:26:39;33.50;47.60
32139;DHT22;18644;48.700;9.210;2023-08-24T10:29:07;33.60;48.40
32139;DHT22;18644;48.700;9.210;2023-08-24T10:31:36;33.60;48.40
32139;DHT22;18644;48.700;9.210;2023-08-24T10:34:05;33.80;48.10
32139;DHT22;18644;48.700;9.210;2023-08-24T10:36:32;33.90;47.90
32139;DHT22;18644;48.700;9.210;2023-08-24T10:39:02;34.00;48.10
32139;DHT22;18644;48.700;9.210;2023-08-24T10:41:46;34.20;48.60
32139;DHT22;18644;48.700;9.210;2023-08-24T10:44:20;34.30;47.80
32139;DHT22;18644;48.700;9.210;2023-08-24T10:47:11;34.50;47.40
32139;DHT22;18644;48.700;9.210;2023-08-24T10:49:39;34.60;46.80
32139;DHT22;18644;48.700;9.210;2023-08-24T10:52:20;34.70;47.00
32139;DHT22;18644;48.700;9.210;2023-08-24T10:54:48;34.80;46.70
32139;DHT22;18644;48.700;9.210;2023-08-24T10:57:20;34.90;47.10
32139;DHT22;18644;48.700;9.210;2023-08-24T10:59:58;34.90;47.00
32139;DHT22;18644;48.700;9.210;2023-08-24T11:02:27;35.00;46.20
32139;DHT22;18644;48.700;9.210;2023-08-24T11:05:04;35.10;46.50
32139;DHT22;18644;48.700;9.210;2023-08-24T11:07:51;35.20;45.90
32139;DHT22;18644;48.700;9.210;2023-08-24T11:10:20;35.30;46.20
32139;DHT22;18644;48.700;9.210;2023-08-24T11:13:08;35.30;46.80
32139;DHT22;18644;48.700;9.210;2023-08-24T11:15:40;35.40;46.60
32139;DHT22;18644;48.700;9.210;2023-08-24T11:18:14;35.50;46.70
32139;DHT22;18644;48.700;9.210;2023-08-24T11:20:44;35.60;46.30
32139;DHT22;18644;48.700;9.210;2023-08-24T11:23:12;35.70;46.40
32139;DHT22;18644;48.700;9.210;2023-08-24T11:25:45;35.70;46.00
32139;DHT22;18644;48.700;9.210;2023-08-24T11:28:17;35.80;45.80
32139;DHT22;18644;48.700;9.210;2023-08-24T11:30:45;35.90;45.90
32139;DHT22;18644;48.700;9.210;2023-08-24T11:33:14;36.00;46.30
32139;DHT22;18644;48.700;9.210;2023-08-24T11:35:42;36.10;45.90
32139;DHT22;18644;48.700;9.210;2023-08-24T11:38:10;36.10;45.30
32139;DHT22;18644;48.700;9.210;2023-08-24T11:40:37;36.20;46.00
32139;DHT22;18644;48.700;9.210;2023-08-24T11:43:05;36.40;46.10
32139;DHT22;18644;48.700;9.210;2023-08-24T11:45:33;36.50;45.40
32139;DHT22;18644;48.700;9.210;2023-08-24T11:48:03;36.60;45.30
32139;DHT22;18644;48.700;9.210;2023-08-24T11:50:32;36.70;45.60
32139;DHT22;18644;48.700;9.210;2023-08-24T11:53:00;36.80;45.70
32139;DHT22;18644;48.700;9.210;2023-08-24T11:55:28;36.90;45.50
32139;DHT22;18644;48.700;9.210;2023-08-24T11:57:55;37.00;45.60
32139;DHT22;18644;48.700;9.210;2023-08-24T12:00:22;37.10;45.30
32139;DHT22;18644;48.700;9.210;2023-08-24T12:02:50;37.20;44.60
32139;DHT22;18644;48.700;9.210;2023-08-24T12:05:21;37.30;44.80
32139;DHT22;18644;48.700;9.210;2023-08-24T12:07:51;37.50;44.50
32139;DHT22;18644;48.700;9.210;2023-08-24T12:10:19;37.50;43.80
32139;DHT22;18644;48.700;9.210;2023-08-24T12:12:46;37.60;44.00
32139;DHT22;18644;48.700;9.210;2023-08-24T12:15:17;37.60;43.50
32139;DHT22;18644;48.700;9.210;2023-08-24T12:17:46;37.60;42.30
32139;DHT22;18644;48.700;9.210;2023-08-24T12:20:18;37.60;42.20
32139;DHT22;18644;48.700;9.210;2023-08-24T12:22:52;37.60;42.50
32139;DHT22;18644;48.700;9.210;2023-08-24T12:25:22;37.60;43.00
32139;DHT22;18644;48.700;9.210;2023-08-24T12:27:50;37.60;42.80
32139;DHT22;18644;48.700;9.210;2023-08-24T12:30:18;37.60;42.80
32139;DHT22;18644;48.700;9.210;2023-08-24T12:32:46;37.60;43.40
32139;DHT22;18644;48.700;9.210;2023-08-24T12:35:15;37.70;43.10
32139;DHT22;18644;48.700;9.210;2023-08-24T12:37:43;37.80;43.10
32139;DHT22;18644;48.700;9.210;2023-08-24T12:40:12;37.90;43.30
32139;DHT22;18644;48.700;9.210;2023-08-24T12:42:40;38.10;42.80
32139;DHT22;18644;48.700;9.210;2023-08-24T12:45:08;38.20;42.70
32139;DHT22;18644;48.700;9.210;2023-08-24T12:47:35;38.30;42.10
32139;DHT22;18644;48.700;9.210;2023-08-24T12:50:07;38.50;42.30
32139;DHT22;18644;48.700;9.210;2023-08-24T12:52:34;38.60;42.30
32139;DHT22;18644;48.700;9.210;2023-08-24T12:55:01;38.70;42.70
32139;DHT22;18644;48.700;9.210;2023-08-24T12:57:31;38.70;42.00
32139;DHT22;18644;48.700;9.210;2023-08-24T12:59:58;38.80;41.80
32139;DHT22;18644;48.700;9.210;2023-08-24T13:02:24;38.80;42.20
32139;DHT22;18644;48.700;9.210;2023-08-24T13:04:51;38.90;42.40
32139;DHT22;18644;48.700;9.210;2023-08-24T13:07:18;39.00;41.90
32139;DHT22;18644;48.700;9.210;2023-08-24T13:09:45;39.00;41.40
32139;DHT22;18644;48.700;9.210;2023-08-24T13:12:12;39.20;40.70
32139;DHT22;18644;48.700;9.210;2023-08-24T13:14:40;39.30;41.10
32139;DHT22;18644;48.700;9.210;2023-08-24T13:17:07;39.40;40.50
32139;DHT22;18644;48.700;9.210;2023-08-24T13:19:34;39.50;39.60
32139;DHT22;18644;48.700;9.210;2023-08-24T13:22:01;39.50;38.90
32139;DHT22;18644;48.700;9.210;2023-08-24T13:24:28;39.60;38.60
32139;DHT22;18644;48.700;9.210;2023-08-24T13:26:55;39.60;39.20
32139;DHT22;18644;48.700;9.210;2023-08-24T13:29:22;39.70;39.00
32139;DHT22;18644;48.700;9.210;2023-08-24T13:31:51;39.70;39.50
32139;DHT22;18644;48.700;9.210;2023-08-24T13:34:18;39.70;39.50
32139;DHT22;18644;48.700;9.210;2023-08-24T13:36:45;39.80;38.70
32139;DHT22;18644;48.700;9.210;2023-08-24T13:39:12;39.70;38.60
32139;DHT22;18644;48.700;9.210;2023-08-24T13:41:38;39.60;38.30
32139;DHT22;18644;48.700;9.210;2023-08-24T13:44:05;39.50;37.70
32139;DHT22;18644;48.700;9.210;2023-08-24T13:46:32;39.50;37.90
32139;DHT22;18644;48.700;9.210;2023-08-24T13:49:00;39.50;38.40
32139;DHT22;18644;48.700;9.210;2023-08-24T13:51:27;39.50;38.50
32139;DHT22;18644;48.700;9.210;2023-08-24T13:53:54;39.60;38.00
32139;DHT22;18644;48.700;9.210;2023-08-24T13:56:21;39.60;37.70
32139;DHT22;18644;48.700;9.210;2023-08-24T13:58:48;39.60;38.30
32139;DHT22;18644;48.700;9.210;2023-08-24T14:01:15;39.60;38.10
32139;DHT22;18644;48.700;9.210;2023-08-24T14:03:43;39.70;38.00
32139;DHT22;18644;48.700;9.210;2023-08-24T14:06:11;39.70;38.10
32139;DHT22;18644;48.700;9.210;2023-08-24T14:08:38;39.70;37.20
32139;DHT22;18644;48.700;9.210;2023-08-24T14:11:04;39.70;36.70
32139;DHT22;18644;48.700;9.210;2023-08-24T14:13:31;39.70;36.60
32139;DHT22;18644;48.700;9.210;2023-08-24T14:15:58;39.70;37.10
32139;DHT22;18644;48.700;9.210;2023-08-24T14:18:25;39.70;37.40
32139;DHT22;18644;48.700;9.210;2023-08-24T14:20:53;39.70;37.10
32139;DHT22;18644;48.700;9.210;2023-08-24T14:23:21;39.70;37.40
32139;DHT22;18644;48.700;9.210;2023-08-24T14:25:48;39.70;36.90
32139;DHT22;18644;48.700;9.210;2023-08-24T14:28:21;39.70;36.70
32139;DHT22;18644;48.700;9.210;2023-08-24T14:30:49;39.70;35.90
32139;DHT22;18644;48.700;9.210;2023-08-24T14:33:16;39.60;35.70
32139;DHT22;18644;48.700;9.210;2023-08-24T14:35:50;39.60;35.90
32139;DHT22;18644;48.700;9.210;2023-08-24T14:38:17;39.50;34.60
32139;DHT22;18644;48.700;9.210;2023-08-24T14:40:45;39.30;35.00
32139;DHT22;18644;48.700;9.210;2023-08-24T14:43:12;39.20;34.90
32139;DHT22;18644;48.700;9.210;2023-08-24T14:45:39;39.10;35.20
32139;DHT22;18644;48.700;9.210;2023-08-24T14:48:06;38.90;34.20
32139;DHT22;18644;48.700;9.210;2023-08-24T14:50:33;38.70;34.00
32139;DHT22;18644;48.700;9.210;2023-08-24T14:53:00;38.60;33.90
32139;DHT22;18644;48.700;9.210;2023-08-24T14:55:27;38.40;33.90
32139;DHT22;18644;48.700;9.210;2023-08-24T14:57:55;38.20;34.00
32139;DHT22;18644;48.700;9.210;2023-08-24T15:00:23;38.00;34.10
32139;DHT22;18644;48.700;9.210;2023-08-24T15:02:50;37.90;34.20
32139;DHT22;18644;48.700;9.210;2023-08-24T15:05:16;37.70;34.10
32139;DHT22;18644;48.700;9.210;2023-08-24T15:07:43;37.60;33.90
32139;DHT22;18644;48.700;9.210;2023-08-24T15:10:10;37.40;34.00
32139;DHT22;18644;48.700;9.210;2023-08-24T15:12:37;37.20;34.60
32139;DHT22;18644;48.700;9.210;2023-08-24T15:15:06;37.00;35.10
32139;DHT22;18644;48.700;9.210;2023-08-24T15:17:33;36.70;36.00
32139;DHT22;18644;48.700;9.210;2023-08-24T15:20:01;36.30;36.60
32139;DHT22;18644;48.700;9.210;2023-08-24T15:22:30;35.80;37.30
32139;DHT22;18644;48.700;9.210;2023-08-24T15:24:57;35.40;37.70
32139;DHT22;18644;48.700;9.210;2023-08-24T15:27:25;34.90;38.20
32139;DHT22;18644;48.700;9.210;2023-08-24T15:29:52;34.50;38.50
32139;DHT22;18644;48.700;9.210;2023-08-24T15:32:20;34.00;38.90
32139;DHT22;18644;48.700;9.210;2023-08-24T15:34:47;33.60;39.70
32139;DHT22;18644;48.700;9.210;2023-08-24T15:37:15;33.20;40.10